Time;durP1;ratioP1;P1;durP2;ratioP2;P2;SDS_P1;SDS_P2;PMS_P1;PMS_P2;Temp;Humidity;BMP_temperature;BMP_pressure;BME280_temperature;BME280_humidity;BME280_pressure;Samples;Min_cycle;Max_cycle;Signal;HPM_P1;HPM_P2
2023/10/09 00:03:01;;;;;;;41.05;20.15;;;13.90;99.90;;;;;;4974968;28;20505;-51
2023/10/09 00:08:18;;;;;;;39.58;19.85;;;13.80;99.90;;;;;;4973818;28;20102;-52
2023/10/09 00:10:53;;;;;;;39.42;21.00;;;13.80;99.90;;;;;;4974315;28;20136;-52
2023/10/09 00:13:30;;;;;;;38.03;19.88;;;13.70;99.90;;;;;;4973471;28;20062;-52
2023/10/09 00:16:01;;;;;;;36.50;19.45;;;13.60;99.90;;;;;;4973767;28;20034;-49
2023/10/09 00:18:30;;;;;;;37.63;19.20;;;13.60;99.90;;;;;;4983280;28;20687;-50
2023/10/09 00:21:12;;;;;;;38.95;19.30;;;13.60;99.90;;;;;;4974883;28;20045;-52
2023/10/09 00:23:41;;;;;;;43.85;20.23;;;13.60;99.90;;;;;;4958999;28;20042;-49
2023/10/09 00:26:16;;;;;;;32.45;18.42;;;13.50;99.90;;;;;;4973870;28;20044;-52
2023/10/09 00:28:46;;;;;;;39.58;19.25;;;13.50;99.90;;;;;;4969772;28;20587;-50
2023/10/09 00:31:15;;;;;;;41.65;20.23;;;13.50;99.90;;;;;;4971979;28;20034;-52
2023/10/09 00:33:43;;;;;;;34.92;18.65;;;13.50;99.90;;;;;;4974465;28;20121;-50
2023/10/09 00:36:09;;;;;;;40.15;19.02;;;13.50;99.90;;;;;;4973340;28;20034;-51
2023/10/09 00:38:36;;;;;;;36.33;18.52;;;13.50;99.90;;;;;;4973334;28;20038;-53
2023/10/09 00:43:35;;;;;;;34.70;19.08;;;13.70;99.90;;;;;;4973378;28;20097;-49
2023/10/09 00:46:11;;;;;;;34.45;17.77;;;13.60;99.90;;;;;;4974030;28;20030;-52
2023/10/09 00:48:40;;;;;;;37.92;18.75;;;13.60;99.90;;;;;;4973174;28;20683;-54
2023/10/09 00:51:17;;;;;;;35.88;18.45;;;13.60;99.90;;;;;;4972502;28;20050;-52
2023/10/09 00:53:52;;;;;;;35.88;18.90;;;13.70;99.90;;;;;;4974129;28;20034;-49
2023/10/09 00:58:56;;;;;;;29.97;16.93;;;13.60;99.90;;;;;;4973761;28;20517;-50
2023/10/09 01:01:28;;;;;;;39.88;19.33;;;13.60;99.90;;;;;;4970938;28;20343;-52
2023/10/09 01:03:54;;;;;;;37.15;18.63;;;13.70;99.90;;;;;;4973698;28;20330;-50
2023/10/09 01:06:33;;;;;;;34.47;18.85;;;13.60;99.90;;;;;;4972197;28;20034;-51
2023/10/09 01:09:11;;;;;;;31.55;17.60;;;13.60;99.90;;;;;;4973407;28;20042;-52
2023/10/09 01:11:48;;;;;;;36.70;18.35;;;13.60;99.90;;;;;;4968823;28;20589;-52
2023/10/09 01:14:14;;;;;;;35.70;17.67;;;13.50;99.90;;;;;;4972775;28;20526;-54
2023/10/09 01:16:43;;;;;;;32.63;17.65;;;13.60;99.90;;;;;;4973402;28;20111;-55
2023/10/09 01:19:13;;;;;;;35.53;17.45;;;13.60;99.90;;;;;;4972231;28;20035;-55
2023/10/09 01:21:42;;;;;;;33.80;17.50;;;13.60;99.90;;;;;;4968815;28;20422;-55
2023/10/09 01:24:08;;;;;;;31.80;17.40;;;13.70;99.90;;;;;;4972341;28;20038;-50
2023/10/09 01:26:39;;;;;;;31.00;17.00;;;13.70;99.90;;;;;;4973387;28;20038;-53
2023/10/09 01:29:14;;;;;;;30.38;17.33;;;13.80;99.90;;;;;;4973071;28;20556;-56
2023/10/09 01:31:46;;;;;;;31.35;16.35;;;13.70;99.90;;;;;;4991452;28;20042;-56
2023/10/09 01:34:15;;;;;;;29.00;16.02;;;13.90;99.90;;;;;;4972139;28;20035;-56
2023/10/09 01:36:41;;;;;;;28.30;16.48;;;13.80;99.90;;;;;;4973016;28;20065;-56
2023/10/09 01:42:00;;;;;;;27.25;15.23;;;13.60;99.90;;;;;;4969795;28;20324;-53
2023/10/09 01:44:30;;;;;;;33.33;16.17;;;13.70;99.90;;;;;;4971905;28;20046;-53
2023/10/09 01:46:57;;;;;;;32.92;16.70;;;13.70;99.90;;;;;;4973017;28;20447;-54
2023/10/09 01:49:29;;;;;;;33.65;17.15;;;13.60;99.90;;;;;;4971717;28;20093;-56
2023/10/09 01:51:58;;;;;;;28.35;15.93;;;13.80;99.90;;;;;;4973165;28;20046;-53
2023/10/09 01:54:37;;;;;;;29.10;16.10;;;13.70;99.90;;;;;;4971667;28;20370;-54
2023/10/09 01:57:13;;;;;;;28.65;16.05;;;13.70;99.90;;;;;;4975117;28;20038;-51
2023/10/09 01:59:49;;;;;;;30.65;16.80;;;13.70;99.90;;;;;;4956807;28;20306;-54
2023/10/09 02:02:33;;;;;;;31.15;17.30;;;13.70;99.90;;;;;;4974338;28;20740;-55
2023/10/09 02:05:09;;;;;;;28.27;15.65;;;13.70;99.90;;;;;;4976894;28;20038;-55
2023/10/09 02:07:40;;;;;;;27.30;16.27;;;13.70;99.90;;;;;;4982814;28;20418;-54
2023/10/09 02:10:47;;;;;;;31.15;16.88;;;13.70;99.90;;;;;;4975579;28;20035;-54
2023/10/09 02:13:09;;;;;;;30.60;16.30;;;13.70;99.90;;;;;;4974038;28;20113;-53
2023/10/09 02:23:38;;;;;;;26.45;14.82;;;13.70;99.90;;;;;;4975811;28;20116;-56
2023/10/09 02:26:08;;;;;;;26.42;15.02;;;13.70;99.90;;;;;;4976327;28;20729;-55
2023/10/09 02:28:34;;;;;;;26.55;14.93;;;13.60;99.90;;;;;;4976193;28;20037;-55
2023/10/09 02:31:21;;;;;;;25.15;14.63;;;13.70;99.90;;;;;;4976552;28;20038;-52
2023/10/09 02:33:48;;;;;;;31.95;16.20;;;13.60;99.90;;;;;;4981664;28;20110;-55
2023/10/09 02:36:13;;;;;;;23.63;14.30;;;13.80;99.90;;;;;;4979798;28;20099;-54
2023/10/09 02:38:42;;;;;;;26.60;15.57;;;13.70;99.90;;;;;;4983249;28;20038;-55
2023/10/09 02:43:55;;;;;;;24.83;15.50;;;13.70;99.90;;;;;;4975851;28;20703;-55
2023/10/09 02:46:28;;;;;;;23.50;14.15;;;13.80;99.90;;;;;;5002606;28;20045;-52
2023/10/09 02:48:56;;;;;;;25.20;15.00;;;13.80;99.90;;;;;;4988247;28;20392;-49
2023/10/09 02:53:57;;;;;;;23.50;13.70;;;13.80;99.90;;;;;;4976041;28;20188;-52
2023/10/09 02:56:24;;;;;;;24.70;14.32;;;13.90;99.90;;;;;;4974591;28;20122;-53
2023/10/09 02:58:53;;;;;;;27.17;14.68;;;13.90;99.90;;;;;;4975938;28;20042;-55
2023/10/09 03:01:19;;;;;;;22.65;14.52;;;13.90;99.90;;;;;;4974025;28;20092;-54
2023/10/09 03:03:48;;;;;;;24.67;13.55;;;13.90;99.90;;;;;;4975628;28;20682;-53
2023/10/09 03:06:19;;;;;;;25.33;14.52;;;13.80;99.90;;;;;;4973569;28;20041;-53
2023/10/09 03:08:47;;;;;;;25.38;13.80;;;14.00;99.90;;;;;;4975503;28;20051;-53
2023/10/09 03:11:13;;;;;;;23.23;13.70;;;14.00;99.90;;;;;;4973846;28;20042;-52
2023/10/09 03:13:43;;;;;;;22.10;13.05;;;14.00;99.90;;;;;;4988717;28;20565;-54
2023/10/09 03:16:14;;;;;;;27.25;14.60;;;13.90;99.90;;;;;;4977165;28;20042;-54
2023/10/09 03:18:40;;;;;;;22.38;13.07;;;14.00;99.90;;;;;;4973493;28;20137;-53
2023/10/09 03:21:06;;;;;;;20.05;11.95;;;14.00;99.90;;;;;;4975062;28;20041;-54
2023/10/09 03:23:32;;;;;;;21.10;13.50;;;14.10;99.90;;;;;;4975357;28;20093;-56
2023/10/09 03:25:58;;;;;;;24.73;13.23;;;14.10;99.90;;;;;;4962288;28;20073;-54
2023/10/09 03:28:24;;;;;;;22.00;12.73;;;14.00;99.90;;;;;;4972672;28;20117;-53
2023/10/09 03:30:50;;;;;;;25.48;13.65;;;14.20;99.90;;;;;;4974535;28;20062;-54
2023/10/09 03:33:17;;;;;;;21.67;12.55;;;14.20;99.90;;;;;;4973677;28;20139;-56
2023/10/09 03:35:42;;;;;;;20.90;12.02;;;14.10;99.90;;;;;;4975284;28;20038;-55
2023/10/09 03:38:12;;;;;;;21.63;12.55;;;14.10;99.90;;;;;;4974506;28;20034;-54
2023/10/09 03:40:42;;;;;;;24.35;13.60;;;14.10;99.90;;;;;;4975062;28;20458;-54
2023/10/09 03:43:10;;;;;;;21.75;13.30;;;14.20;99.90;;;;;;4973791;28;20038;-54
2023/10/09 03:45:38;;;;;;;21.52;12.68;;;14.30;99.90;;;;;;4970650;28;20039;-55
2023/10/09 03:48:49;;;;;;;21.30;12.57;;;14.30;99.90;;;;;;4974007;28;20034;-54
2023/10/09 03:50:57;;;;;;;21.45;12.60;;;14.30;99.90;;;;;;4971084;28;20038;-55
2023/10/09 03:53:25;;;;;;;23.42;11.48;;;14.40;99.90;;;;;;4974029;28;20042;-53
2023/10/09 03:55:51;;;;;;;25.92;14.07;;;14.50;99.90;;;;;;4973025;28;20038;-50
2023/10/09 03:58:18;;;;;;;23.48;12.93;;;14.60;99.90;;;;;;4973559;28;20026;-50
2023/10/09 04:00:49;;;;;;;24.20;12.65;;;14.60;99.90;;;;;;4975119;28;20165;-50
2023/10/09 04:03:15;;;;;;;22.35;12.02;;;14.70;99.90;;;;;;4973907;28;20076;-51
2023/10/09 04:05:42;;;;;;;22.15;13.18;;;14.70;99.90;;;;;;4974600;28;20053;-52
2023/10/09 04:08:28;;;;;;;24.08;12.32;;;15.00;99.90;;;;;;4971250;28;20033;-53
2023/10/09 04:10:59;;;;;;;27.83;14.02;;;15.00;99.90;;;;;;4974396;28;20046;-52
2023/10/09 04:13:33;;;;;;;25.67;14.35;;;15.00;99.90;;;;;;4981727;28;20120;-52
2023/10/09 04:16:33;;;;;;;24.35;14.30;;;15.10;99.90;;;;;;4974535;28;20105;-51
2023/10/09 04:18:57;;;;;;;25.38;14.20;;;15.10;99.90;;;;;;4971448;28;20173;-50
2023/10/09 04:21:34;;;;;;;24.40;14.02;;;15.10;99.90;;;;;;4973896;28;20693;-51
2023/10/09 04:24:22;;;;;;;22.88;13.82;;;15.10;99.90;;;;;;4974910;28;20547;-49
2023/10/09 04:26:46;;;;;;;27.45;14.98;;;15.10;99.90;;;;;;4979459;28;20042;-51
2023/10/09 04:29:49;;;;;;;26.38;15.80;;;15.20;99.90;;;;;;4973038;28;20045;-53
2023/10/09 04:32:15;;;;;;;25.33;15.32;;;15.30;99.90;;;;;;4968733;28;20395;-54
2023/10/09 04:34:56;;;;;;;29.00;15.32;;;15.20;99.90;;;;;;4974046;28;20528;-50
2023/10/09 04:37:36;;;;;;;32.75;16.23;;;15.20;99.90;;;;;;4973239;28;20050;-53
2023/10/09 04:40:14;;;;;;;27.67;16.15;;;15.20;99.90;;;;;;4972035;28;20105;-53
2023/10/09 04:42:46;;;;;;;26.60;16.30;;;15.20;99.90;;;;;;4973989;28;20088;-49
2023/10/09 04:47:49;;;;;;;28.75;14.80;;;15.10;99.90;;;;;;4980152;28;20471;-50
2023/10/09 05:03:04;;;;;;;29.13;15.82;;;15.30;99.90;;;;;;4973045;28;20536;-50
2023/10/09 05:16:07;;;;;;;28.27;16.30;;;15.30;99.90;;;;;;4972647;28;20127;-51
2023/10/09 05:18:42;;;;;;;25.52;16.42;;;15.30;99.90;;;;;;4973275;28;20466;-51
2023/10/09 05:23:49;;;;;;;26.20;14.52;;;15.20;99.90;;;;;;4957544;28;20038;-49
2023/10/09 05:26:49;;;;;;;28.05;16.27;;;15.20;99.90;;;;;;4971909;28;20113;-50
2023/10/09 05:29:24;;;;;;;27.65;16.15;;;15.40;99.90;;;;;;4971757;28;20058;-52
2023/10/09 05:35:15;;;;;;;27.35;16.60;;;15.40;99.90;;;;;;4978831;28;20041;-52
2023/10/09 05:37:25;;;;;;;29.40;16.33;;;15.50;99.90;;;;;;4971939;28;20125;-50
2023/10/09 05:47:57;;;;;;;31.65;18.23;;;15.60;99.90;;;;;;4958133;28;20212;-52
2023/10/09 06:03:48;;;;;;;33.20;19.45;;;15.60;99.90;;;;;;4978382;28;20138;-51
2023/10/09 06:06:33;;;;;;;36.60;18.70;;;15.70;99.90;;;;;;4972105;28;20323;-50
2023/10/09 06:19:43;;;;;;;33.60;19.38;;;15.70;99.90;;;;;;4971838;28;20502;-52
2023/10/09 06:24:42;;;;;;;31.52;18.52;;;15.80;99.90;;;;;;4973150;28;20047;-55
2023/10/09 06:29:50;;;;;;;27.83;17.27;;;15.80;99.90;;;;;;4958794;28;20109;-55
2023/10/09 06:34:56;;;;;;;28.25;16.50;;;15.80;99.90;;;;;;4972781;28;20838;-52
2023/10/09 06:39:50;;;;;;;35.50;17.45;;;16.00;99.90;;;;;;4973109;28;20030;-52
2023/10/09 06:42:34;;;;;;;30.13;17.27;;;16.00;99.90;;;;;;4973180;28;20034;-52
2023/10/09 06:45:18;;;;;;;29.35;17.15;;;15.90;99.90;;;;;;4991509;28;20036;-57
2023/10/09 06:47:55;;;;;;;35.95;17.65;;;15.90;99.90;;;;;;4966250;28;20022;-56
2023/10/09 06:52:58;;;;;;;31.25;17.48;;;16.00;99.90;;;;;;4976060;28;20042;-55
2023/10/09 06:55:36;;;;;;;35.13;22.45;;;16.00;99.90;;;;;;4974671;28;20053;-55
2023/10/09 06:58:09;;;;;;;29.48;17.73;;;16.10;99.90;;;;;;4974621;28;20060;-54
2023/10/09 07:03:19;;;;;;;30.30;17.20;;;16.00;99.90;;;;;;4975040;28;20008;-56
2023/10/09 07:06:04;;;;;;;30.20;18.05;;;16.10;99.90;;;;;;4975697;28;20376;-55
2023/10/09 07:08:36;;;;;;;29.85;18.95;;;16.00;99.90;;;;;;4982726;28;20612;-54
2023/10/09 07:11:21;;;;;;;30.55;18.52;;;16.10;99.90;;;;;;4973167;28;20629;-56
2023/10/09 07:13:55;;;;;;;36.05;18.88;;;16.10;99.90;;;;;;4961698;28;20486;-53
2023/10/09 07:16:38;;;;;;;40.72;20.83;;;16.30;99.90;;;;;;4974411;28;20045;-54
2023/10/09 07:19:25;;;;;;;34.53;19.10;;;16.30;99.90;;;;;;4974763;28;20043;-54
2023/10/09 07:21:53;;;;;;;40.03;19.83;;;16.40;99.90;;;;;;4970089;28;20042;-54
2023/10/09 07:24:37;;;;;;;34.47;19.70;;;16.40;99.90;;;;;;4974105;28;20402;-57
2023/10/09 07:27:13;;;;;;;32.17;18.60;;;16.40;99.90;;;;;;4974402;28;20789;-54
2023/10/09 07:29:48;;;;;;;37.35;18.60;;;16.50;99.90;;;;;;4963603;28;20037;-55
2023/10/09 07:32:21;;;;;;;32.60;18.00;;;16.60;99.90;;;;;;4988810;28;20073;-56
2023/10/09 07:34:53;;;;;;;34.53;17.80;;;16.40;99.90;;;;;;4975398;28;20042;-54
2023/10/09 07:37:30;;;;;;;26.17;16.45;;;16.40;99.90;;;;;;4985017;28;20110;-54
2023/10/09 07:40:06;;;;;;;29.33;16.25;;;16.30;99.90;;;;;;4979228;28;20395;-55
2023/10/09 07:42:52;;;;;;;26.85;16.52;;;16.30;99.90;;;;;;4981820;28;20053;-55
2023/10/09 07:48:05;;;;;;;30.25;16.42;;;16.40;99.90;;;;;;4988456;28;20037;-54
2023/10/09 07:50:40;;;;;;;29.65;16.63;;;16.40;99.90;;;;;;4981695;28;20064;-56
2023/10/09 07:53:19;;;;;;;32.47;17.15;;;16.60;99.90;;;;;;4973700;28;20034;-53
2023/10/09 07:55:54;;;;;;;29.65;16.45;;;16.50;99.90;;;;;;4963483;28;20117;-53
2023/10/09 07:58:24;;;;;;;25.88;16.65;;;16.50;99.90;;;;;;4973761;28;20331;-56
2023/10/09 08:03:36;;;;;;;35.15;17.05;;;16.60;99.90;;;;;;4981122;28;20034;-55
2023/10/09 08:09:17;;;;;;;31.75;17.05;;;16.70;99.90;;;;;;4974985;28;20077;-56
2023/10/09 08:11:59;;;;;;;34.50;17.17;;;16.80;99.90;;;;;;4981033;28;20152;-55
2023/10/09 08:17:17;;;;;;;31.75;17.38;;;17.00;99.90;;;;;;4974362;28;20093;-53
2023/10/09 08:19:53;;;;;;;29.05;17.58;;;16.90;99.90;;;;;;4979173;28;20608;-55
2023/10/09 08:24:56;;;;;;;31.63;17.10;;;17.00;99.90;;;;;;4979951;28;20166;-56
2023/10/09 08:32:56;;;;;;;38.45;18.25;;;17.10;99.90;;;;;;4977106;28;20688;-54
2023/10/09 08:35:32;;;;;;;29.38;17.00;;;17.10;99.90;;;;;;4973194;28;20061;-54
2023/10/09 08:38:00;;;;;;;31.40;16.85;;;17.20;99.90;;;;;;4974554;28;20490;-55
2023/10/09 08:40:46;;;;;;;66.78;23.15;;;17.10;99.90;;;;;;4973193;28;20044;-56
2023/10/09 08:43:17;;;;;;;29.23;16.77;;;17.00;99.90;;;;;;4969693;28;20038;-56
2023/10/09 08:45:48;;;;;;;33.22;17.27;;;17.00;99.90;;;;;;4996592;28;20042;-55
2023/10/09 08:48:17;;;;;;;31.10;16.52;;;17.20;99.90;;;;;;4992345;28;20036;-56
2023/10/09 08:50:48;;;;;;;30.15;15.93;;;17.20;99.90;;;;;;4987737;28;20042;-59
2023/10/09 08:53:16;;;;;;;30.45;17.35;;;17.10;99.90;;;;;;4969859;28;20073;-56
2023/10/09 08:55:43;;;;;;;30.65;16.95;;;17.10;99.90;;;;;;4973555;28;20065;-57
2023/10/09 08:58:19;;;;;;;25.65;15.20;;;17.10;99.90;;;;;;4972635;28;20041;-56
2023/10/09 09:00:48;;;;;;;27.35;15.48;;;17.10;99.90;;;;;;4973606;28;20052;-54
2023/10/09 09:03:19;;;;;;;31.95;16.58;;;17.20;99.90;;;;;;4972293;28;20104;-53
2023/10/09 09:05:51;;;;;;;30.33;16.00;;;17.30;99.90;;;;;;4973528;28;20161;-56
2023/10/09 09:08:25;;;;;;;25.10;15.45;;;17.30;99.90;;;;;;4973060;28;20101;-56
2023/10/09 09:11:12;;;;;;;30.10;15.73;;;17.40;99.90;;;;;;4973626;28;20085;-54
2023/10/09 09:13:41;;;;;;;27.38;15.60;;;17.40;99.90;;;;;;4963989;28;20120;-56
2023/10/09 09:16:29;;;;;;;29.58;15.18;;;17.50;99.90;;;;;;4972451;28;20042;-53
2023/10/09 09:19:17;;;;;;;29.88;16.48;;;17.60;99.90;;;;;;4973204;28;20732;-54
2023/10/09 09:21:47;;;;;;;26.67;14.85;;;17.60;99.90;;;;;;4959910;28;20096;-52
2023/10/09 09:26:46;;;;;;;29.02;14.82;;;17.80;99.90;;;;;;4972574;28;20733;-53
2023/10/09 09:29:18;;;;;;;27.38;15.45;;;17.90;99.90;;;;;;4965353;28;20045;-55
2023/10/09 09:32:15;;;;;;;23.77;14.47;;;17.90;99.90;;;;;;4973085;28;20050;-53
2023/10/09 09:34:56;;;;;;;22.27;12.90;;;18.00;99.90;;;;;;4978016;28;20034;-53
2023/10/09 09:37:50;;;;;;;30.65;14.73;;;18.00;99.90;;;;;;4972277;28;20398;-53
2023/10/09 09:40:28;;;;;;;30.60;14.75;;;18.00;99.90;;;;;;4971050;28;20038;-51
2023/10/09 09:43:04;;;;;;;30.17;14.38;;;18.00;99.90;;;;;;4973350;28;20049;-53
2023/10/09 09:45:32;;;;;;;26.58;14.63;;;18.10;99.90;;;;;;5000694;28;20040;-55
2023/10/09 09:48:05;;;;;;;27.25;15.25;;;18.10;99.90;;;;;;4985117;28;20035;-54
2023/10/09 09:50:43;;;;;;;26.92;14.10;;;18.00;99.90;;;;;;4980010;28;20092;-53
2023/10/09 09:53:16;;;;;;;28.45;14.00;;;18.10;99.90;;;;;;4971655;28;20046;-53
2023/10/09 09:55:51;;;;;;;26.70;14.85;;;18.10;99.90;;;;;;4961348;28;20050;-53
2023/10/09 09:58:20;;;;;;;27.77;14.77;;;18.10;99.90;;;;;;4972076;28;20034;-55
2023/10/09 10:00:52;;;;;;;25.95;14.68;;;18.10;99.90;;;;;;4973587;28;20065;-53
2023/10/09 10:03:26;;;;;;;26.55;13.60;;;18.10;99.90;;;;;;4971838;28;20081;-53
2023/10/09 10:05:56;;;;;;;29.80;13.98;;;18.20;99.90;;;;;;4973043;28;20027;-56
2023/10/09 10:08:31;;;;;;;27.95;13.65;;;18.20;99.90;;;;;;4972596;28;20262;-56
2023/10/09 10:11:06;;;;;;;25.02;13.73;;;18.30;99.90;;;;;;4973254;28;20129;-55
2023/10/09 10:13:40;;;;;;;29.23;14.32;;;18.40;99.90;;;;;;4979745;28;20133;-56
2023/10/09 10:16:19;;;;;;;3.63;2.42;;;18.50;99.90;;;;;;4972050;28;20367;-57
2023/10/09 10:18:59;;;;;;;0.00;0.00;;;18.50;99.90;;;;;;4976790;28;20046;-57
2023/10/09 10:24:11;;;;;;;0.00;0.00;;;18.50;99.90;;;;;;4976903;28;20088;-57
2023/10/09 10:26:37;;;;;;;9.65;5.32;;;18.60;99.90;;;;;;4976156;28;20807;-56
2023/10/09 10:29:34;;;;;;;28.10;13.70;;;18.80;99.90;;;;;;4975671;28;20038;-55
2023/10/09 10:32:10;;;;;;;18.98;11.40;;;18.70;99.90;;;;;;4976235;28;20318;-55
2023/10/09 10:34:56;;;;;;;0.00;0.00;;;18.80;99.90;;;;;;4982793;28;20506;-55
2023/10/09 10:37:51;;;;;;;0.00;0.00;;;18.80;99.90;;;;;;4975085;28;20429;-56
2023/10/09 10:40:40;;;;;;;0.00;0.00;;;18.70;99.90;;;;;;4975858;28;20023;-55
2023/10/09 10:43:09;;;;;;;0.00;0.00;;;18.80;99.90;;;;;;4975001;28;20065;-57
2023/10/09 10:45:43;;;;;;;0.00;0.00;;;18.80;99.90;;;;;;4997905;28;20040;-57
2023/10/09 10:48:22;;;;;;;0.00;0.00;;;18.90;99.90;;;;;;4985476;28;20385;-55
2023/10/09 10:50:49;;;;;;;0.00;0.00;;;19.00;99.90;;;;;;4976433;28;20039;-55
2023/10/09 10:53:15;;;;;;;0.00;0.00;;;19.10;99.90;;;;;;4974512;28;20039;-57
2023/10/09 10:58:47;;;;;;;0.00;0.00;;;19.20;99.90;;;;;;4975324;28;20516;-55
2023/10/09 11:01:13;;;;;;;0.00;0.00;;;19.20;99.90;;;;;;4975264;28;20038;-56
2023/10/09 11:03:55;;;;;;;0.00;0.00;;;19.10;99.90;;;;;;4976323;28;20069;-57
2023/10/09 11:06:37;;;;;;;0.00;0.00;;;19.20;99.90;;;;;;4975120;28;20639;-55
2023/10/09 11:09:20;;;;;;;0.00;0.00;;;19.20;99.90;;;;;;4972839;28;20088;-53
2023/10/09 11:11:47;;;;;;;;;;;19.30;99.90;;;;;;4976388;28;20049;-57
2023/10/09 11:14:23;;;;;;;0.00;0.00;;;19.30;99.90;;;;;;4974889;28;19917;-55
2023/10/09 11:16:49;;;;;;;0.00;0.00;;;19.30;99.90;;;;;;4975707;28;20053;-54
2023/10/09 11:19:28;;;;;;;0.00;0.00;;;19.40;99.90;;;;;;4974516;28;20108;-55
2023/10/09 11:21:59;;;;;;;0.00;0.00;;;;;;;;;;4976109;28;20050;-53
2023/10/09 11:24:35;;;;;;;0.00;0.00;;;;;;;;;;4981608;28;20038;-54
2023/10/09 11:27:08;;;;;;;0.00;0.00;;;;;;;;;;4974487;28;20483;-54
2023/10/09 11:32:18;;;;;;;0.00;0.00;;;;;;;;;;4988684;28;20325;-55
2023/10/09 11:34:51;;;;;;;0.00;0.00;;;;;;;;;;4975831;28;20030;-56
2023/10/09 11:39:57;;;;;;;0.00;0.00;;;;;;;;;;4975513;28;20034;-57
2023/10/09 11:42:38;;;;;;;0.00;0.00;;;;;;;;;;4974144;28;20049;-54
2023/10/09 11:45:19;;;;;;;0.00;0.00;;;;;;;;;;4974465;28;20031;-55
2023/10/09 11:47:54;;;;;;;0.00;0.00;;;;;;;;;;4974909;28;20042;-56
2023/10/09 11:50:30;;;;;;;0.00;0.00;;;;;;;;;;4974132;28;20355;-55
2023/10/09 11:53:17;;;;;;;0.00;0.00;;;;;;;;;;4975154;28;20035;-57
2023/10/09 11:55:48;;;;;;;0.00;0.00;;;;;;;;;;4963015;28;20034;-57
2023/10/09 11:58:14;;;;;;;0.00;0.00;;;;;;;;;;4974699;28;20037;-55
2023/10/09 12:00:46;;;;;;;0.00;0.00;;;;;;;;;;4974925;28;20030;-56
2023/10/09 12:03:13;;;;;;;0.00;0.00;;;;;;;;;;4974323;28;20038;-55
2023/10/09 12:05:43;;;;;;;0.00;0.00;;;;;;;;;;4975512;28;20080;-57
2023/10/09 12:08:09;;;;;;;0.00;0.00;;;;;;;;;;4974571;28;20034;-58
2023/10/09 12:10:38;;;;;;;0.00;0.00;;;;;;;;;;4974531;28;20716;-55
2023/10/09 12:13:04;;;;;;;0.00;0.00;;;;;;;;;;4974302;28;20222;-55
2023/10/09 12:15:37;;;;;;;0.00;0.00;;;;;;;;;;4972708;28;20038;-56
2023/10/09 12:18:08;;;;;;;0.00;0.00;;;;;;;;;;4973201;28;20046;-57
2023/10/09 12:20:35;;;;;;;0.00;0.00;;;;;;;;;;4974359;28;20296;-56
2023/10/09 12:23:04;;;;;;;0.00;0.00;;;;;;;;;;4974278;28;20034;-58
2023/10/09 12:25:31;;;;;;;0.00;0.00;;;;;;;;;;4981454;28;20041;-54
2023/10/09 12:27:57;;;;;;;0.00;0.00;;;;;;;;;;4974942;28;20035;-54
2023/10/09 12:30:29;;;;;;;0.00;0.00;;;;;;;;;;4993265;28;20049;-54
2023/10/09 12:32:57;;;;;;;0.00;0.00;;;;;;;;;;4978198;28;20546;-55
2023/10/09 12:35:24;;;;;;;0.00;0.00;;;;;;;;;;4973491;28;20035;-54
2023/10/09 12:37:50;;;;;;;0.00;0.00;;;;;;;;;;4974272;28;20038;-53
2023/10/09 12:40:23;;;;;;;0.00;0.00;;;;;;;;;;4972746;28;20092;-56
2023/10/09 12:42:50;;;;;;;0.00;0.00;;;;;;;;;;4973826;28;20674;-55
2023/10/09 12:45:17;;;;;;;0.00;0.00;;;;;;;;;;4972336;28;20049;-55
2023/10/09 12:47:43;;;;;;;0.00;0.00;;;;;;;;;;4974203;28;20034;-58
2023/10/09 12:50:13;;;;;;;0.00;0.00;;;;;;;;;;4972955;28;20044;-55
2023/10/09 12:52:39;;;;;;;0.00;0.00;;;;;;;;;;4974099;28;20514;-57
2023/10/09 12:55:07;;;;;;;0.00;0.00;;;;;;;;;;4972632;28;20235;-56
2023/10/09 12:57:34;;;;;;;0.00;0.00;;;;;;;;;;4974110;28;20663;-56
2023/10/09 13:00:00;;;;;;;0.00;0.00;;;;;;;;;;4972434;28;20204;-56
2023/10/09 13:02:29;;;;;;;0.00;0.00;;;;;;;;;;4973068;28;20041;-55
2023/10/09 13:04:55;;;;;;;0.00;0.00;;;;;;;;;;4973543;28;20065;-56
2023/10/09 13:07:22;;;;;;;0.00;0.00;;;;;;;;;;4970531;28;20045;-56
2023/10/09 13:10:08;;;;;;;0.00;0.00;;;;;;;;;;4972812;28;20589;-55
2023/10/09 13:12:38;;;;;;;0.00;0.00;;;;;;;;;;4978780;28;20693;-56
2023/10/09 13:15:09;;;;;;;0.00;0.00;;;;;;;;;;4969283;28;20035;-57
2023/10/09 13:17:36;;;;;;;0.00;0.00;;;;;;;;;;4973112;28;20034;-55
2023/10/09 13:20:03;;;;;;;0.00;0.00;;;;;;;;;;4972507;28;20026;-56
2023/10/09 13:22:30;;;;;;;0.00;0.00;;;;;;;;;;4973491;28;20671;-56
2023/10/09 13:25:03;;;;;;;0.00;0.00;;;;;;;;;;4973560;28;20034;-56
2023/10/09 13:27:34;;;;;;;;;;;;;;;;;;4981014;28;20042;-55
2023/10/09 13:30:05;;;;;;;0.00;0.00;;;;;;;;;;4973110;28;20374;-56
2023/10/09 13:32:35;;;;;;;0.00;0.00;;;;;;;;;;4979679;28;20121;-57
2023/10/09 13:35:03;;;;;;;0.00;0.00;;;;;;;;;;4972641;28;20612;-56
2023/10/09 13:37:30;;;;;;;0.00;0.00;;;;;;;;;;4977984;28;20035;-56
2023/10/09 13:39:57;;;;;;;0.00;0.00;;;;;;;;;;4972865;28;20038;-57
2023/10/09 13:42:26;;;;;;;0.00;0.00;;;;;;;;;;4971096;28;20054;-55
2023/10/09 13:44:55;;;;;;;0.00;0.00;;;;;;;;;;4986430;28;20349;-57
2023/10/09 13:47:21;;;;;;;0.00;0.00;;;;;;;;;;4992035;28;20044;-56
2023/10/09 13:49:52;;;;;;;0.00;0.00;;;;;;;;;;4977874;28;20041;-56
2023/10/09 13:52:18;;;;;;;0.00;0.00;;;;;;;;;;4975939;28;20038;-56
2023/10/09 13:54:48;;;;;;;0.00;0.00;;;;;;;;;;4978477;28;20489;-56
2023/10/09 13:57:15;;;;;;;0.00;0.00;;;;;;;;;;4975631;28;20125;-56
2023/10/09 13:59:49;;;;;;;0.00;0.00;;;;;;;;;;4979344;28;20521;-55
2023/10/09 14:02:19;;;;;;;0.00;0.00;;;;;;;;;;4977770;28;20647;-57
2023/10/09 14:04:46;;;;;;;0.00;0.00;;;;;;;;;;4976827;28;20121;-55
2023/10/09 14:07:16;;;;;;;0.00;0.00;;;;;;;;;;4977346;28;20483;-56
2023/10/09 14:09:55;;;;;;;0.00;0.00;;;;;;;;;;4978920;28;20045;-56
2023/10/09 14:12:29;;;;;;;0.00;0.00;;;;;;;;;;4977662;28;20034;-55
2023/10/09 14:14:55;;;;;;;0.00;0.00;;;;;;;;;;4978345;28;20541;-56
2023/10/09 14:17:25;;;;;;;0.00;0.00;;;;;;;;;;4978230;28;20100;-54
2023/10/09 14:19:54;;;;;;;0.00;0.00;;;;;;;;;;4979381;28;20438;-56
2023/10/09 14:22:24;;;;;;;0.00;0.00;;;;;;;;;;4978733;28;20045;-55
2023/10/09 14:24:55;;;;;;;0.00;0.00;;;;;;;;;;4979009;28;20065;-58
2023/10/09 14:27:23;;;;;;;0.00;0.00;;;;;;;;;;4978355;28;20033;-57
2023/10/09 14:29:50;;;;;;;0.00;0.00;;;;;;;;;;4978829;28;20038;-56
2023/10/09 14:32:16;;;;;;;0.00;0.00;;;;;;;;;;4978220;28;20778;-58
2023/10/09 14:34:46;;;;;;;0.00;0.00;;;;;;;;;;4979750;28;20042;-55
2023/10/09 14:37:12;;;;;;;0.00;0.00;;;;;;;;;;4976239;28;20038;-56
2023/10/09 14:39:41;;;;;;;0.00;0.00;;;;;;;;;;4972474;28;20479;-55
2023/10/09 14:42:10;;;;;;;0.00;0.00;;;;;;;;;;4978022;28;20034;-55
2023/10/09 14:44:40;;;;;;;0.00;0.00;;;;;;;;;;4978996;28;20042;-58
2023/10/09 14:47:06;;;;;;;0.00;0.00;;;;;;;;;;4978663;28;20129;-57
2023/10/09 14:49:38;;;;;;;0.00;0.00;;;;;;;;;;4979144;28;20047;-56
2023/10/09 14:52:07;;;;;;;0.00;0.00;;;;;;;;;;4978547;28;20045;-57
2023/10/09 14:54:33;;;;;;;0.00;0.00;;;;;;;;;;4979128;28;20118;-56
2023/10/09 14:56:59;;;;;;;0.00;0.00;;;;;;;;;;4978996;28;20676;-57
2023/10/09 14:59:25;;;;;;;0.00;0.00;;;;;;;;;;4977745;28;20145;-56
2023/10/09 15:01:53;;;;;;;0.00;0.00;;;;;;;;;;4977935;28;20252;-57
2023/10/09 15:04:20;;;;;;;0.00;0.00;;;;;;;;;;4974401;28;20042;-56
2023/10/09 15:06:49;;;;;;;0.00;0.00;;;;;;;;;;4976004;28;20514;-56
2023/10/09 15:09:29;;;;;;;0.00;0.00;;;;;;;;;;4974630;28;20038;-57
2023/10/09 15:11:55;;;;;;;0.00;0.00;;;;;;;;;;4975854;28;20078;-56
2023/10/09 15:14:22;;;;;;;0.00;0.00;;;;;;;;;;4977681;28;22582;-56
2023/10/09 15:16:48;;;;;;;0.00;0.00;;;;;;;;;;4981044;28;20038;-57
2023/10/09 15:19:16;;;;;;;0.00;0.00;;;;;;;;;;4974296;28;20096;-58
2023/10/09 15:21:45;;;;;;;0.00;0.00;;;;;;;;;;4975800;28;20033;-57
2023/10/09 15:24:15;;;;;;;0.00;0.00;;;;;;;;;;4974614;28;20030;-55
2023/10/09 15:26:51;;;;;;;0.00;0.00;;;;;;;;;;4976039;28;20038;-58
2023/10/09 15:29:19;;;;;;;0.00;0.00;;;;;;;;;;4974316;28;20113;-55
2023/10/09 15:31:46;;;;;;;0.00;0.00;;;;;;;;;;4975053;28;20086;-56
2023/10/09 15:34:13;;;;;;;0.00;0.00;;;;;;;;;;4974641;28;20736;-57
2023/10/09 15:36:40;;;;;;;0.00;0.00;;;;;;;;;;4975895;28;20046;-54
2023/10/09 15:39:11;;;;;;;0.00;0.00;;;;;;;;;;4972681;28;20042;-55
2023/10/09 15:41:39;;;;;;;0.00;0.00;;;;;;;;;;4962351;28;20638;-55
2023/10/09 15:44:05;;;;;;;0.00;0.00;;;;;;;;;;4974171;28;20034;-54
2023/10/09 15:46:35;;;;;;;0.00;0.00;;;;;;;;;;4975609;28;20045;-56
2023/10/09 15:49:01;;;;;;;0.00;0.00;;;;;;;;;;4975694;28;20031;-58
2023/10/09 15:51:28;;;;;;;0.00;0.00;;;;;;;;;;4974620;28;20133;-56
2023/10/09 15:53:54;;;;;;;0.00;0.00;;;;;;;;;;4975437;28;20050;-55